sensor_id;sensor_type;location;lat;lon;timestamp;temperature;humidity
54431;DHT22;40342;52.998;5.862;2022-12-07T00:01:07;2.70;99.90
54431;DHT22;40342;52.998;5.862;2022-12-07T00:03:34;2.70;99.90
54431;DHT22;40342;52.998;5.862;2022-12-07T00:06:00;2.60;99.90
54431;DHT22;40342;52.998;5.862;2022-12-07T00:08:26;2.70;99.90
54431;DHT22;40342;52.998;5.862;2022-12-07T00:10:52;2.70;99.90
54431;DHT22;40342;52.998;5.862;2022-12-07T00:13:17;2.70;99.90
54431;DHT22;40342;52.998;5.862;2022-12-07T00:15:44;2.70;99.90
54431;DHT22;40342;52.998;5.862;2022-12-07T00:18:09;2.70;99.90
54431;DHT22;40342;52.998;5.862;2022-12-07T00:20:35;2.70;99.90
54431;DHT22;40342;52.998;5.862;2022-12-07T00:23:00;2.70;99.90
54431;DHT22;40342;52.998;5.862;2022-12-07T00:25:26;2.80;99.90
54431;DHT22;40342;52.998;5.862;2022-12-07T00:27:53;2.80;99.90
54431;DHT22;40342;52.998;5.862;2022-12-07T00:30:21;2.80;99.90
54431;DHT22;40342;52.998;5.862;2022-12-07T00:32:47;2.80;99.90
54431;DHT22;40342;52.998;5.862;2022-12-07T00:35:13;2.80;99.90
54431;DHT22;40342;52.998;5.862;2022-12-07T00:37:38;2.80;99.90
54431;DHT22;40342;52.998;5.862;2022-12-07T00:40:05;2.80;99.90
54431;DHT22;40342;52.998;5.862;2022-12-07T00:42:30;2.80;99.90
54431;DHT22;40342;52.998;5.862;2022-12-07T00:44:56;2.80;99.90
54431;DHT22;40342;52.998;5.862;2022-12-07T00:47:22;2.80;99.90
54431;DHT22;40342;52.998;5.862;2022-12-07T00:49:47;2.90;99.90
54431;DHT22;40342;52.998;5.862;2022-12-07T00:52:13;2.80;99.90
54431;DHT22;40342;52.998;5.862;2022-12-07T00:54:39;2.90;99.90
54431;DHT22;40342;52.998;5.862;2022-12-07T00:57:05;2.80;99.90
54431;DHT22;40342;52.998;5.862;2022-12-07T00:59:30;2.80;99.90
54431;DHT22;40342;52.998;5.862;2022-12-07T01:01:56;2.80;99.90
54431;DHT22;40342;52.998;5.862;2022-12-07T01:04:22;2.80;99.90
54431;DHT22;40342;52.998;5.862;2022-12-07T01:06:47;2.80;99.90
54431;DHT22;40342;52.998;5.862;2022-12-07T01:09:13;2.80;99.90
54431;DHT22;40342;52.998;5.862;2022-12-07T01:11:38;2.80;99.90
54431;DHT22;40342;52.998;5.862;2022-12-07T01:14:04;2.80;99.90
54431;DHT22;40342;52.998;5.862;2022-12-07T01:16:31;2.80;99.90
54431;DHT22;40342;52.998;5.862;2022-12-07T01:18:58;2.80;99.90
54431;DHT22;40342;52.998;5.862;2022-12-07T01:21:26;2.70;99.90
54431;DHT22;40342;52.998;5.862;2022-12-07T01:23:52;2.70;99.90
54431;DHT22;40342;52.998;5.862;2022-12-07T01:26:20;2.70;99.90
54431;DHT22;40342;52.998;5.862;2022-12-07T01:28:46;2.60;99.90
54431;DHT22;40342;52.998;5.862;2022-12-07T01:31:15;2.60;99.90
54431;DHT22;40342;52.998;5.862;2022-12-07T01:33:43;2.60;99.90
54431;DHT22;40342;52.998;5.862;2022-12-07T01:36:17;2.50;99.90
54431;DHT22;40342;52.998;5.862;2022-12-07T01:38:43;2.50;99.90
54431;DHT22;40342;52.998;5.862;2022-12-07T01:41:10;2.40;99.90
54431;DHT22;40342;52.998;5.862;2022-12-07T01:43:36;2.40;99.90
54431;DHT22;40342;52.998;5.862;2022-12-07T01:46:03;2.40;99.90
54431;DHT22;40342;52.998;5.862;2022-12-07T01:48:35;2.40;99.90
54431;DHT22;40342;52.998;5.862;2022-12-07T01:51:04;2.50;99.90
54431;DHT22;40342;52.998;5.862;2022-12-07T01:53:31;2.50;99.90
54431;DHT22;40342;52.998;5.862;2022-12-07T01:56:00;2.50;99.90
54431;DHT22;40342;52.998;5.862;2022-12-07T01:58:26;2.60;99.90
54431;DHT22;40342;52.998;5.862;2022-12-07T02:00:51;2.60;99.90
54431;DHT22;40342;52.998;5.862;2022-12-07T02:03:26;2.60;99.90
54431;DHT22;40342;52.998;5.862;2022-12-07T02:05:53;2.60;99.90
54431;DHT22;40342;52.998;5.862;2022-12-07T02:08:20;2.70;99.90
54431;DHT22;40342;52.998;5.862;2022-12-07T02:10:45;2.60;99.90
54431;DHT22;40342;52.998;5.862;2022-12-07T02:13:18;2.70;99.90
54431;DHT22;40342;52.998;5.862;2022-12-07T02:19:09;2.70;99.90
54431;DHT22;40342;52.998;5.862;2022-12-07T02:29:27;2.90;99.90
54431;DHT22;40342;52.998;5.862;2022-12-07T02:34:51;3.10;99.90
54431;DHT22;40342;52.998;5.862;2022-12-07T02:42:41;3.20;99.90
54431;DHT22;40342;52.998;5.862;2022-12-07T02:45:10;3.30;99.90
54431;DHT22;40342;52.998;5.862;2022-12-07T02:47:39;3.30;99.90
54431;DHT22;40342;52.998;5.862;2022-12-07T02:50:05;3.30;99.90
54431;DHT22;40342;52.998;5.862;2022-12-07T02:52:31;3.30;99.90
54431;DHT22;40342;52.998;5.862;2022-12-07T02:54:57;3.30;99.90
54431;DHT22;40342;52.998;5.862;2022-12-07T03:00:10;3.40;99.90
54431;DHT22;40342;52.998;5.862;2022-12-07T03:03:00;3.40;99.90
54431;DHT22;40342;52.998;5.862;2022-12-07T03:08:31;3.50;99.90
54431;DHT22;40342;52.998;5.862;2022-12-07T03:11:02;3.60;99.90
54431;DHT22;40342;52.998;5.862;2022-12-07T03:14:04;3.60;99.90
54431;DHT22;40342;52.998;5.862;2022-12-07T03:16:39;3.70;99.90
54431;DHT22;40342;52.998;5.862;2022-12-07T03:19:15;3.70;99.90
54431;DHT22;40342;52.998;5.862;2022-12-07T03:22:02;3.60;99.90
54431;DHT22;40342;52.998;5.862;2022-12-07T03:24:37;3.60;99.90
54431;DHT22;40342;52.998;5.862;2022-12-07T03:27:15;3.60;99.90
54431;DHT22;40342;52.998;5.862;2022-12-07T03:30:06;3.60;99.90
54431;DHT22;40342;52.998;5.862;2022-12-07T03:32:43;3.50;99.90
54431;DHT22;40342;52.998;5.862;2022-12-07T03:35:16;3.50;99.90
54431;DHT22;40342;52.998;5.862;2022-12-07T03:37:52;3.40;99.90
54431;DHT22;40342;52.998;5.862;2022-12-07T03:40:43;3.30;99.90
54431;DHT22;40342;52.998;5.862;2022-12-07T03:43:10;3.20;99.90
54431;DHT22;40342;52.998;5.862;2022-12-07T03:45:44;3.10;99.90
54431;DHT22;40342;52.998;5.862;2022-12-07T03:48:40;3.10;99.90
54431;DHT22;40342;52.998;5.862;2022-12-07T03:51:19;3.10;99.90
54431;DHT22;40342;52.998;5.862;2022-12-07T03:53:56;3.00;99.90
54431;DHT22;40342;52.998;5.862;2022-12-07T03:56:24;3.00;99.90
54431;DHT22;40342;52.998;5.862;2022-12-07T03:58:52;3.00;99.90
54431;DHT22;40342;52.998;5.862;2022-12-07T04:01:18;2.90;99.90
54431;DHT22;40342;52.998;5.862;2022-12-07T04:03:44;3.00;99.90
54431;DHT22;40342;52.998;5.862;2022-12-07T04:06:09;2.90;99.90
54431;DHT22;40342;52.998;5.862;2022-12-07T04:08:38;2.90;99.90
54431;DHT22;40342;52.998;5.862;2022-12-07T04:11:04;2.90;99.90
54431;DHT22;40342;52.998;5.862;2022-12-07T04:13:29;2.90;99.90
54431;DHT22;40342;52.998;5.862;2022-12-07T04:15:55;2.90;99.90
54431;DHT22;40342;52.998;5.862;2022-12-07T04:18:21;2.90;99.90
54431;DHT22;40342;52.998;5.862;2022-12-07T04:20:46;2.80;99.90
54431;DHT22;40342;52.998;5.862;2022-12-07T04:23:12;2.90;99.90
54431;DHT22;40342;52.998;5.862;2022-12-07T04:25:37;2.80;99.90
54431;DHT22;40342;52.998;5.862;2022-12-07T04:28:03;2.80;99.90
54431;DHT22;40342;52.998;5.862;2022-12-07T04:30:29;2.80;99.90
54431;DHT22;40342;52.998;5.862;2022-12-07T04:32:54;2.80;99.90
54431;DHT22;40342;52.998;5.862;2022-12-07T04:35:20;2.80;99.90
54431;DHT22;40342;52.998;5.862;2022-12-07T04:37:45;2.80;99.90
54431;DHT22;40342;52.998;5.862;2022-12-07T04:40:11;2.70;99.90
54431;DHT22;40342;52.998;5.862;2022-12-07T04:42:39;2.70;99.90
54431;DHT22;40342;52.998;5.862;2022-12-07T04:45:05;2.60;99.90
54431;DHT22;40342;52.998;5.862;2022-12-07T04:47:31;2.50;99.90
54431;DHT22;40342;52.998;5.862;2022-12-07T04:49:56;2.50;99.90
54431;DHT22;40342;52.998;5.862;2022-12-07T04:52:22;2.40;99.90
54431;DHT22;40342;52.998;5.862;2022-12-07T04:54:48;2.30;99.90
54431;DHT22;40342;52.998;5.862;2022-12-07T04:57:13;2.30;99.90
54431;DHT22;40342;52.998;5.862;2022-12-07T04:59:39;2.20;99.90
54431;DHT22;40342;52.998;5.862;2022-12-07T05:02:04;2.20;99.90
54431;DHT22;40342;52.998;5.862;2022-12-07T05:04:30;2.10;99.90
54431;DHT22;40342;52.998;5.862;2022-12-07T05:06:55;2.10;99.90
54431;DHT22;40342;52.998;5.862;2022-12-07T05:09:21;2.10;99.90
54431;DHT22;40342;52.998;5.862;2022-12-07T05:11:46;2.10;99.90
54431;DHT22;40342;52.998;5.862;2022-12-07T05:14:17;2.10;99.90
54431;DHT22;40342;52.998;5.862;2022-12-07T05:16:45;2.10;99.90
54431;DHT22;40342;52.998;5.862;2022-12-07T05:19:11;2.00;99.90
54431;DHT22;40342;52.998;5.862;2022-12-07T05:21:37;2.10;99.90
54431;DHT22;40342;52.998;5.862;2022-12-07T05:24:04;2.10;99.90
54431;DHT22;40342;52.998;5.862;2022-12-07T05:26:29;2.30;99.90
54431;DHT22;40342;52.998;5.862;2022-12-07T05:28:56;2.40;99.90
54431;DHT22;40342;52.998;5.862;2022-12-07T05:31:23;2.60;99.90
54431;DHT22;40342;52.998;5.862;2022-12-07T05:33:49;2.70;99.90
54431;DHT22;40342;52.998;5.862;2022-12-07T05:36:14;2.80;99.90
54431;DHT22;40342;52.998;5.862;2022-12-07T05:38:40;2.90;99.90
54431;DHT22;40342;52.998;5.862;2022-12-07T05:41:07;2.90;99.90
54431;DHT22;40342;52.998;5.862;2022-12-07T05:43:53;3.00;99.90
54431;DHT22;40342;52.998;5.862;2022-12-07T05:46:19;3.00;99.90
54431;DHT22;40342;52.998;5.862;2022-12-07T05:48:44;3.00;99.90
54431;DHT22;40342;52.998;5.862;2022-12-07T05:51:10;3.00;99.90
54431;DHT22;40342;52.998;5.862;2022-12-07T05:53:35;3.10;99.90
54431;DHT22;40342;52.998;5.862;2022-12-07T05:56:01;3.00;99.90
54431;DHT22;40342;52.998;5.862;2022-12-07T05:58:26;3.00;99.90
54431;DHT22;40342;52.998;5.862;2022-12-07T06:01:10;3.00;99.90
54431;DHT22;40342;52.998;5.862;2022-12-07T06:03:36;3.00;99.90
54431;DHT22;40342;52.998;5.862;2022-12-07T06:06:01;2.90;99.90
54431;DHT22;40342;52.998;5.862;2022-12-07T06:08:27;2.90;99.90
54431;DHT22;40342;52.998;5.862;2022-12-07T06:10:52;2.90;99.90
54431;DHT22;40342;52.998;5.862;2022-12-07T06:13:38;2.80;99.90
54431;DHT22;40342;52.998;5.862;2022-12-07T06:16:04;2.80;99.90
54431;DHT22;40342;52.998;5.862;2022-12-07T06:18:29;2.70;99.90
54431;DHT22;40342;52.998;5.862;2022-12-07T06:20:55;2.70;99.90
54431;DHT22;40342;52.998;5.862;2022-12-07T06:23:20;2.60;99.90
54431;DHT22;40342;52.998;5.862;2022-12-07T06:25:46;2.50;99.90
54431;DHT22;40342;52.998;5.862;2022-12-07T06:28:12;2.50;99.90
54431;DHT22;40342;52.998;5.862;2022-12-07T06:30:37;2.50;99.90
54431;DHT22;40342;52.998;5.862;2022-12-07T06:33:03;2.40;99.90
54431;DHT22;40342;52.998;5.862;2022-12-07T06:35:28;2.40;99.90
54431;DHT22;40342;52.998;5.862;2022-12-07T06:37:54;2.20;99.90
54431;DHT22;40342;52.998;5.862;2022-12-07T06:40:19;2.10;99.90
54431;DHT22;40342;52.998;5.862;2022-12-07T06:42:45;2.10;99.90
54431;DHT22;40342;52.998;5.862;2022-12-07T06:45:10;2.00;99.90
54431;DHT22;40342;52.998;5.862;2022-12-07T06:47:36;2.00;99.90
54431;DHT22;40342;52.998;5.862;2022-12-07T06:50:02;2.00;99.90
54431;DHT22;40342;52.998;5.862;2022-12-07T06:52:28;1.90;99.90
54431;DHT22;40342;52.998;5.862;2022-12-07T06:54:54;1.90;99.90
54431;DHT22;40342;52.998;5.862;2022-12-07T06:57:19;1.80;99.90
54431;DHT22;40342;52.998;5.862;2022-12-07T06:59:45;1.80;99.90
54431;DHT22;40342;52.998;5.862;2022-12-07T07:02:11;1.80;99.90
54431;DHT22;40342;52.998;5.862;2022-12-07T07:04:36;1.80;99.90
54431;DHT22;40342;52.998;5.862;2022-12-07T07:07:02;1.80;99.90
54431;DHT22;40342;52.998;5.862;2022-12-07T07:09:28;1.80;99.90
54431;DHT22;40342;52.998;5.862;2022-12-07T07:11:53;1.70;99.90
54431;DHT22;40342;52.998;5.862;2022-12-07T07:14:19;1.70;99.90
54431;DHT22;40342;52.998;5.862;2022-12-07T07:16:44;1.70;99.90
54431;DHT22;40342;52.998;5.862;2022-12-07T07:19:10;1.70;99.90
54431;DHT22;40342;52.998;5.862;2022-12-07T07:21:36;1.60;99.90
54431;DHT22;40342;52.998;5.862;2022-12-07T07:24:02;1.60;99.90
54431;DHT22;40342;52.998;5.862;2022-12-07T07:26:27;1.60;99.90
54431;DHT22;40342;52.998;5.862;2022-12-07T07:28:53;1.60;99.90
54431;DHT22;40342;52.998;5.862;2022-12-07T07:31:19;1.60;99.90
54431;DHT22;40342;52.998;5.862;2022-12-07T07:33:46;1.50;99.90
54431;DHT22;40342;52.998;5.862;2022-12-07T07:36:12;1.50;99.90
54431;DHT22;40342;52.998;5.862;2022-12-07T07:38:37;1.50;99.90
54431;DHT22;40342;52.998;5.862;2022-12-07T07:41:03;1.50;99.90
54431;DHT22;40342;52.998;5.862;2022-12-07T07:43:29;1.50;99.90
54431;DHT22;40342;52.998;5.862;2022-12-07T07:45:54;1.60;99.90
54431;DHT22;40342;52.998;5.862;2022-12-07T07:48:20;1.50;99.90
54431;DHT22;40342;52.998;5.862;2022-12-07T07:50:48;1.50;99.90
54431;DHT22;40342;52.998;5.862;2022-12-07T07:53:13;1.50;99.90
54431;DHT22;40342;52.998;5.862;2022-12-07T07:55:39;1.50;99.90
54431;DHT22;40342;52.998;5.862;2022-12-07T07:58:04;1.50;99.90
54431;DHT22;40342;52.998;5.862;2022-12-07T08:00:30;1.50;99.90
54431;DHT22;40342;52.998;5.862;2022-12-07T08:02:56;1.50;99.90
54431;DHT22;40342;52.998;5.862;2022-12-07T08:05:21;1.40;99.90
54431;DHT22;40342;52.998;5.862;2022-12-07T08:07:47;1.40;99.90
54431;DHT22;40342;52.998;5.862;2022-12-07T08:10:13;1.40;99.90
54431;DHT22;40342;52.998;5.862;2022-12-07T08:12:40;1.40;99.90
54431;DHT22;40342;52.998;5.862;2022-12-07T08:15:28;1.40;99.90
54431;DHT22;40342;52.998;5.862;2022-12-07T08:17:54;1.40;99.90
54431;DHT22;40342;52.998;5.862;2022-12-07T08:20:20;1.40;99.90
54431;DHT22;40342;52.998;5.862;2022-12-07T08:22:45;1.40;99.90
54431;DHT22;40342;52.998;5.862;2022-12-07T08:25:11;1.30;99.90
54431;DHT22;40342;52.998;5.862;2022-12-07T08:27:36;1.40;99.90
54431;DHT22;40342;52.998;5.862;2022-12-07T08:30:02;1.40;99.90
54431;DHT22;40342;52.998;5.862;2022-12-07T08:32:28;1.40;99.90
54431;DHT22;40342;52.998;5.862;2022-12-07T08:34:54;1.40;99.90
54431;DHT22;40342;52.998;5.862;2022-12-07T08:37:19;1.40;99.90
54431;DHT22;40342;52.998;5.862;2022-12-07T08:39:45;1.40;99.90
54431;DHT22;40342;52.998;5.862;2022-12-07T08:42:10;1.40;99.90
54431;DHT22;40342;52.998;5.862;2022-12-07T08:44:36;1.50;99.90
54431;DHT22;40342;52.998;5.862;2022-12-07T08:47:04;1.60;99.90
54431;DHT22;40342;52.998;5.862;2022-12-07T08:49:41;1.70;99.90
54431;DHT22;40342;52.998;5.862;2022-12-07T08:52:09;1.80;99.90
54431;DHT22;40342;52.998;5.862;2022-12-07T08:54:36;2.00;99.90
54431;DHT22;40342;52.998;5.862;2022-12-07T08:57:04;2.00;99.90
54431;DHT22;40342;52.998;5.862;2022-12-07T08:59:30;2.10;99.90
54431;DHT22;40342;52.998;5.862;2022-12-07T09:01:56;2.10;99.90
54431;DHT22;40342;52.998;5.862;2022-12-07T09:04:22;2.20;99.90
54431;DHT22;40342;52.998;5.862;2022-12-07T09:06:47;2.20;99.90
54431;DHT22;40342;52.998;5.862;2022-12-07T09:09:14;2.30;99.90
54431;DHT22;40342;52.998;5.862;2022-12-07T09:11:40;2.20;99.90
54431;DHT22;40342;52.998;5.862;2022-12-07T09:14:05;2.30;99.90
54431;DHT22;40342;52.998;5.862;2022-12-07T09:16:31;2.30;99.90
54431;DHT22;40342;52.998;5.862;2022-12-07T09:18:57;2.30;99.90
54431;DHT22;40342;52.998;5.862;2022-12-07T09:21:22;2.20;99.90
54431;DHT22;40342;52.998;5.862;2022-12-07T09:23:48;2.20;99.90
54431;DHT22;40342;52.998;5.862;2022-12-07T09:26:13;2.20;99.90
54431;DHT22;40342;52.998;5.862;2022-12-07T09:28:39;2.10;99.90
54431;DHT22;40342;52.998;5.862;2022-12-07T09:31:05;2.10;99.90
54431;DHT22;40342;52.998;5.862;2022-12-07T09:33:31;2.10;99.90
54431;DHT22;40342;52.998;5.862;2022-12-07T09:35:58;2.20;99.90
54431;DHT22;40342;52.998;5.862;2022-12-07T09:38:23;2.40;99.90
54431;DHT22;40342;52.998;5.862;2022-12-07T09:40:53;2.70;99.90
54431;DHT22;40342;52.998;5.862;2022-12-07T09:43:21;3.10;99.90
54431;DHT22;40342;52.998;5.862;2022-12-07T09:45:53;3.40;99.90
54431;DHT22;40342;52.998;5.862;2022-12-07T09:50:54;3.90;99.90
54431;DHT22;40342;52.998;5.862;2022-12-07T09:53:30;4.10;99.90
54431;DHT22;40342;52.998;5.862;2022-12-07T09:55:59;4.10;99.90
54431;DHT22;40342;52.998;5.862;2022-12-07T09:58:27;4.10;99.90
54431;DHT22;40342;52.998;5.862;2022-12-07T10:01:15;4.10;99.90
54431;DHT22;40342;52.998;5.862;2022-12-07T10:03:49;4.10;99.90
54431;DHT22;40342;52.998;5.862;2022-12-07T10:06:15;4.10;99.90
54431;DHT22;40342;52.998;5.862;2022-12-07T10:08:40;4.10;99.90
54431;DHT22;40342;52.998;5.862;2022-12-07T10:11:08;4.10;99.90
54431;DHT22;40342;52.998;5.862;2022-12-07T10:13:44;4.00;99.90
54431;DHT22;40342;52.998;5.862;2022-12-07T10:18:49;4.00;99.90
54431;DHT22;40342;52.998;5.862;2022-12-07T10:21:17;4.10;99.90
54431;DHT22;40342;52.998;5.862;2022-12-07T10:26:35;4.40;99.90
54431;DHT22;40342;52.998;5.862;2022-12-07T10:29:24;4.60;99.90
54431;DHT22;40342;52.998;5.862;2022-12-07T10:34:39;4.80;99.90
54431;DHT22;40342;52.998;5.862;2022-12-07T10:39:46;5.00;99.90
54431;DHT22;40342;52.998;5.862;2022-12-07T10:42:23;5.00;99.90
54431;DHT22;40342;52.998;5.862;2022-12-07T10:45:06;4.90;99.90
54431;DHT22;40342;52.998;5.862;2022-12-07T10:47:54;4.90;99.90
54431;DHT22;40342;52.998;5.862;2022-12-07T11:01:04;4.90;99.90
54431;DHT22;40342;52.998;5.862;2022-12-07T11:04:06;4.90;99.90
54431;DHT22;40342;52.998;5.862;2022-12-07T11:06:48;4.90;99.90
54431;DHT22;40342;52.998;5.862;2022-12-07T11:18:11;4.80;99.90
54431;DHT22;40342;52.998;5.862;2022-12-07T11:21:09;4.90;99.90
54431;DHT22;40342;52.998;5.862;2022-12-07T11:23:52;4.80;99.90
54431;DHT22;40342;52.998;5.862;2022-12-07T11:32:07;4.80;99.90
54431;DHT22;40342;52.998;5.862;2022-12-07T11:34:49;4.80;99.90
54431;DHT22;40342;52.998;5.862;2022-12-07T11:37:25;4.90;99.90
54431;DHT22;40342;52.998;5.862;2022-12-07T11:39:57;4.90;99.90
54431;DHT22;40342;52.998;5.862;2022-12-07T11:42:31;5.00;99.90
54431;DHT22;40342;52.998;5.862;2022-12-07T11:47:47;5.30;99.90
54431;DHT22;40342;52.998;5.862;2022-12-07T11:50:33;5.40;99.90
54431;DHT22;40342;52.998;5.862;2022-12-07T11:56:00;5.60;99.90
54431;DHT22;40342;52.998;5.862;2022-12-07T12:03:52;5.80;99.90
54431;DHT22;40342;52.998;5.862;2022-12-07T12:06:20;5.90;99.90
54431;DHT22;40342;52.998;5.862;2022-12-07T12:08:59;6.00;99.90
54431;DHT22;40342;52.998;5.862;2022-12-07T12:19:44;6.20;99.90
54431;DHT22;40342;52.998;5.862;2022-12-07T12:22:20;6.20;99.90
54431;DHT22;40342;52.998;5.862;2022-12-07T12:24:50;6.20;99.90
54431;DHT22;40342;52.998;5.862;2022-12-07T12:27:29;6.10;99.90
54431;DHT22;40342;52.998;5.862;2022-12-07T12:29:59;6.10;99.90
54431;DHT22;40342;52.998;5.862;2022-12-07T12:32:39;6.10;99.90
54431;DHT22;40342;52.998;5.862;2022-12-07T12:35:29;6.00;99.90
54431;DHT22;40342;52.998;5.862;2022-12-07T12:38:31;6.00;99.90
54431;DHT22;40342;52.998;5.862;2022-12-07T12:40:59;5.90;99.90
54431;DHT22;40342;52.998;5.862;2022-12-07T12:43:46;5.80;99.90
54431;DHT22;40342;52.998;5.862;2022-12-07T12:46:36;5.70;99.90
54431;DHT22;40342;52.998;5.862;2022-12-07T12:59:33;5.60;99.90
54431;DHT22;40342;52.998;5.862;2022-12-07T13:13:00;5.60;99.90
54431;DHT22;40342;52.998;5.862;2022-12-07T13:15:38;5.60;99.90
54431;DHT22;40342;52.998;5.862;2022-12-07T13:20:56;5.60;99.90
54431;DHT22;40342;52.998;5.862;2022-12-07T13:31:40;5.50;99.90
54431;DHT22;40342;52.998;5.862;2022-12-07T13:36:58;5.40;99.90
54431;DHT22;40342;52.998;5.862;2022-12-07T13:39:26;5.40;99.90
54431;DHT22;40342;52.998;5.862;2022-12-07T13:41:57;5.40;99.90
54431;DHT22;40342;52.998;5.862;2022-12-07T13:44:24;5.40;99.90
54431;DHT22;40342;52.998;5.862;2022-12-07T13:47:15;5.40;99.90
54431;DHT22;40342;52.998;5.862;2022-12-07T13:49:50;5.40;99.90
54431;DHT22;40342;52.998;5.862;2022-12-07T13:52:18;5.40;99.90
54431;DHT22;40342;52.998;5.862;2022-12-07T13:54:59;5.40;99.90
54431;DHT22;40342;52.998;5.862;2022-12-07T13:57:27;5.40;99.90
54431;DHT22;40342;52.998;5.862;2022-12-07T13:59:54;5.80;99.90
54431;DHT22;40342;52.998;5.862;2022-12-07T14:02:26;5.30;99.90
54431;DHT22;40342;52.998;5.862;2022-12-07T14:05:15;5.30;99.90
54431;DHT22;40342;52.998;5.862;2022-12-07T14:07:59;5.30;99.90
54431;DHT22;40342;52.998;5.862;2022-12-07T14:10:28;5.20;99.90
54431;DHT22;40342;52.998;5.862;2022-12-07T14:12:54;5.30;99.90
54431;DHT22;40342;52.998;5.862;2022-12-07T14:15:23;5.20;99.90
54431;DHT22;40342;52.998;5.862;2022-12-07T14:17:50;5.20;99.90
54431;DHT22;40342;52.998;5.862;2022-12-07T14:20:46;5.10;99.90
54431;DHT22;40342;52.998;5.862;2022-12-07T14:23:24;4.90;99.90
54431;DHT22;40342;52.998;5.862;2022-12-07T14:25:53;4.90;99.90
54431;DHT22;40342;52.998;5.862;2022-12-07T14:28:27;4.80;99.90
54431;DHT22;40342;52.998;5.862;2022-12-07T14:30:53;4.80;99.90
54431;DHT22;40342;52.998;5.862;2022-12-07T14:33:19;4.70;99.90
54431;DHT22;40342;52.998;5.862;2022-12-07T14:35:45;4.60;99.90
54431;DHT22;40342;52.998;5.862;2022-12-07T14:38:11;4.60;99.90
54431;DHT22;40342;52.998;5.862;2022-12-07T14:40:38;4.50;99.90
54431;DHT22;40342;52.998;5.862;2022-12-07T14:43:12;4.50;99.90
54431;DHT22;40342;52.998;5.862;2022-12-07T14:45:39;4.40;99.90
54431;DHT22;40342;52.998;5.862;2022-12-07T14:48:06;4.30;99.90
54431;DHT22;40342;52.998;5.862;2022-12-07T14:50:37;4.30;99.90
54431;DHT22;40342;52.998;5.862;2022-12-07T14:53:13;4.20;99.90
54431;DHT22;40342;52.998;5.862;2022-12-07T14:55:39;4.00;99.90
54431;DHT22;40342;52.998;5.862;2022-12-07T14:58:04;3.90;99.90
54431;DHT22;40342;52.998;5.862;2022-12-07T15:00:30;3.80;99.90
54431;DHT22;40342;52.998;5.862;2022-12-07T15:02:56;3.70;99.90
54431;DHT22;40342;52.998;5.862;2022-12-07T15:05:23;3.60;99.90
54431;DHT22;40342;52.998;5.862;2022-12-07T15:07:49;3.50;99.90
54431;DHT22;40342;52.998;5.862;2022-12-07T15:10:24;3.40;99.90
54431;DHT22;40342;52.998;5.862;2022-12-07T15:12:54;3.30;99.90
54431;DHT22;40342;52.998;5.862;2022-12-07T15:15:20;3.30;99.90
54431;DHT22;40342;52.998;5.862;2022-12-07T15:17:45;3.20;99.90
54431;DHT22;40342;52.998;5.862;2022-12-07T15:20:13;3.10;99.90
54431;DHT22;40342;52.998;5.862;2022-12-07T15:22:39;3.10;99.90
54431;DHT22;40342;52.998;5.862;2022-12-07T15:25:05;3.10;99.90
54431;DHT22;40342;52.998;5.862;2022-12-07T15:27:31;3.10;99.90
54431;DHT22;40342;52.998;5.862;2022-12-07T15:29:57;3.10;99.90
54431;DHT22;40342;52.998;5.862;2022-12-07T15:32:22;3.10;99.90
54431;DHT22;40342;52.998;5.862;2022-12-07T15:34:48;3.10;99.90
54431;DHT22;40342;52.998;5.862;2022-12-07T15:37:15;3.10;99.90
54431;DHT22;40342;52.998;5.862;2022-12-07T15:39:41;3.10;99.90
54431;DHT22;40342;52.998;5.862;2022-12-07T15:42:07;3.10;99.90
54431;DHT22;40342;52.998;5.862;2022-12-07T15:44:33;3.20;99.90
54431;DHT22;40342;52.998;5.862;2022-12-07T15:47:17;3.20;99.90
54431;DHT22;40342;52.998;5.862;2022-12-07T15:49:43;3.30;99.90
54431;DHT22;40342;52.998;5.862;2022-12-07T15:52:09;3.30;99.90
54431;DHT22;40342;52.998;5.862;2022-12-07T15:54:34;3.40;99.90
54431;DHT22;40342;52.998;5.862;2022-12-07T15:57:00;3.40;99.90
54431;DHT22;40342;52.998;5.862;2022-12-07T15:59:27;3.40;99.90
54431;DHT22;40342;52.998;5.862;2022-12-07T16:01:53;3.40;99.90
54431;DHT22;40342;52.998;5.862;2022-12-07T16:04:18;3.40;99.90
54431;DHT22;40342;52.998;5.862;2022-12-07T16:06:44;3.50;99.90
54431;DHT22;40342;52.998;5.862;2022-12-07T16:09:10;3.50;99.90
54431;DHT22;40342;52.998;5.862;2022-12-07T16:11:36;3.50;99.90
54431;DHT22;40342;52.998;5.862;2022-12-07T16:14:02;3.50;99.90
54431;DHT22;40342;52.998;5.862;2022-12-07T16:16:27;3.50;99.90
54431;DHT22;40342;52.998;5.862;2022-12-07T16:18:53;3.50;99.90
54431;DHT22;40342;52.998;5.862;2022-12-07T16:21:19;3.40;99.90
54431;DHT22;40342;52.998;5.862;2022-12-07T16:23:45;3.40;99.90
54431;DHT22;40342;52.998;5.862;2022-12-07T16:26:16;3.40;99.90
54431;DHT22;40342;52.998;5.862;2022-12-07T16:28:43;3.30;99.90
54431;DHT22;40342;52.998;5.862;2022-12-07T16:31:11;3.30;99.90
54431;DHT22;40342;52.998;5.862;2022-12-07T16:33:39;3.30;99.90
54431;DHT22;40342;52.998;5.862;2022-12-07T16:36:06;3.20;99.90
54431;DHT22;40342;52.998;5.862;2022-12-07T16:38:33;3.10;99.90
54431;DHT22;40342;52.998;5.862;2022-12-07T16:40:59;3.00;99.90
54431;DHT22;40342;52.998;5.862;2022-12-07T16:43:25;2.90;99.90
54431;DHT22;40342;52.998;5.862;2022-12-07T16:45:50;2.80;99.90
54431;DHT22;40342;52.998;5.862;2022-12-07T16:48:17;2.80;99.90
54431;DHT22;40342;52.998;5.862;2022-12-07T16:50:43;2.70;99.90
54431;DHT22;40342;52.998;5.862;2022-12-07T16:53:10;2.70;99.90
54431;DHT22;40342;52.998;5.862;2022-12-07T16:55:41;2.70;99.90
54431;DHT22;40342;52.998;5.862;2022-12-07T16:58:07;2.70;99.90
54431;DHT22;40342;52.998;5.862;2022-12-07T17:00:34;2.70;99.90
54431;DHT22;40342;52.998;5.862;2022-12-07T17:03:00;2.70;99.90
54431;DHT22;40342;52.998;5.862;2022-12-07T17:05:27;2.70;99.90
54431;DHT22;40342;52.998;5.862;2022-12-07T17:07:56;2.80;99.90
54431;DHT22;40342;52.998;5.862;2022-12-07T17:10:23;2.80;99.90
54431;DHT22;40342;52.998;5.862;2022-12-07T17:12:49;2.80;99.90
54431;DHT22;40342;52.998;5.862;2022-12-07T17:15:15;2.80;99.90
54431;DHT22;40342;52.998;5.862;2022-12-07T17:18:06;2.80;99.90
54431;DHT22;40342;52.998;5.862;2022-12-07T17:20:32;2.80;99.90
54431;DHT22;40342;52.998;5.862;2022-12-07T17:22:58;2.80;99.90
54431;DHT22;40342;52.998;5.862;2022-12-07T17:25:24;2.70;99.90
54431;DHT22;40342;52.998;5.862;2022-12-07T17:27:50;2.70;99.90
54431;DHT22;40342;52.998;5.862;2022-12-07T17:30:16;2.70;99.90
54431;DHT22;40342;52.998;5.862;2022-12-07T17:32:41;2.70;99.90
54431;DHT22;40342;52.998;5.862;2022-12-07T17:35:07;2.70;99.90
54431;DHT22;40342;52.998;5.862;2022-12-07T17:37:33;2.60;99.90
54431;DHT22;40342;52.998;5.862;2022-12-07T17:39:58;2.60;99.90
54431;DHT22;40342;52.998;5.862;2022-12-07T17:42:25;2.60;99.90
54431;DHT22;40342;52.998;5.862;2022-12-07T17:45:06;2.50;99.90
54431;DHT22;40342;52.998;5.862;2022-12-07T17:47:32;2.50;99.90
54431;DHT22;40342;52.998;5.862;2022-12-07T17:49:57;2.50;99.90
54431;DHT22;40342;52.998;5.862;2022-12-07T17:52:23;2.50;99.90
54431;DHT22;40342;52.998;5.862;2022-12-07T17:55:07;2.50;99.90